sensor_id;sensor_type;location;lat;lon;timestamp;P1;durP1;ratioP1;P2;durP2;ratioP2
10637;SDS011;47007;49.252;8.904;2023-11-18T00:00:09;8.45;;;7.43;;
10637;SDS011;47007;49.252;8.904;2023-11-18T00:00:55;9.18;;;8.18;;
10637;SDS011;47007;49.252;8.904;2023-11-18T00:01:36;8.93;;;7.82;;
10637;SDS011;47007;49.252;8.904;2023-11-18T00:02:18;10.48;;;7.65;;
10637;SDS011;47007;49.252;8.904;2023-11-18T00:03:00;8.57;;;7.53;;
10637;SDS011;47007;49.252;8.904;2023-11-18T00:03:42;8.10;;;7.00;;
10637;SDS011;47007;49.252;8.904;2023-11-18T00:04:24;8.48;;;7.57;;
10637;SDS011;47007;49.252;8.904;2023-11-18T00:05:06;6.85;;;6.20;;
10637;SDS011;47007;49.252;8.904;2023-11-18T00:05:49;8.27;;;7.47;;
10637;SDS011;47007;49.252;8.904;2023-11-18T00:06:30;8.52;;;7.63;;
10637;SDS011;47007;49.252;8.904;2023-11-18T00:07:12;7.50;;;6.75;;
10637;SDS011;47007;49.252;8.904;2023-11-18T00:07:54;9.27;;;7.47;;
10637;SDS011;47007;49.252;8.904;2023-11-18T00:08:36;8.50;;;7.47;;
10637;SDS011;47007;49.252;8.904;2023-11-18T00:09:18;8.60;;;7.43;;
10637;SDS011;47007;49.252;8.904;2023-11-18T00:10:01;8.35;;;7.57;;
10637;SDS011;47007;49.252;8.904;2023-11-18T00:10:43;6.80;;;6.10;;
10637;SDS011;47007;49.252;8.904;2023-11-18T00:11:25;6.50;;;5.85;;
10637;SDS011;47007;49.252;8.904;2023-11-18T00:12:08;5.75;;;5.25;;
10637;SDS011;47007;49.252;8.904;2023-11-18T00:12:50;6.10;;;5.45;;
10637;SDS011;47007;49.252;8.904;2023-11-18T00:13:31;5.70;;;5.20;;
10637;SDS011;47007;49.252;8.904;2023-11-18T00:14:13;5.25;;;4.75;;
10637;SDS011;47007;49.252;8.904;2023-11-18T00:14:55;5.25;;;4.85;;
10637;SDS011;47007;49.252;8.904;2023-11-18T00:15:37;5.25;;;4.85;;
10637;SDS011;47007;49.252;8.904;2023-11-18T00:16:18;4.75;;;4.35;;
10637;SDS011;47007;49.252;8.904;2023-11-18T00:17:00;5.40;;;5.00;;
10637;SDS011;47007;49.252;8.904;2023-11-18T00:17:44;5.43;;;5.03;;
10637;SDS011;47007;49.252;8.904;2023-11-18T00:18:26;5.05;;;4.65;;
10637;SDS011;47007;49.252;8.904;2023-11-18T00:19:07;5.90;;;5.40;;
10637;SDS011;47007;49.252;8.904;2023-11-18T00:19:50;5.38;;;4.97;;
10637;SDS011;47007;49.252;8.904;2023-11-18T00:20:32;5.70;;;5.30;;
10637;SDS011;47007;49.252;8.904;2023-11-18T00:21:14;5.07;;;4.75;;
10637;SDS011;47007;49.252;8.904;2023-11-18T00:21:56;5.15;;;4.75;;
10637;SDS011;47007;49.252;8.904;2023-11-18T00:22:38;6.38;;;5.78;;
10637;SDS011;47007;49.252;8.904;2023-11-18T00:23:20;5.88;;;5.40;;
10637;SDS011;47007;49.252;8.904;2023-11-18T00:24:03;6.18;;;5.55;;
10637;SDS011;47007;49.252;8.904;2023-11-18T00:24:46;6.00;;;5.50;;
10637;SDS011;47007;49.252;8.904;2023-11-18T00:25:28;6.65;;;6.05;;
10637;SDS011;47007;49.252;8.904;2023-11-18T00:26:09;6.65;;;6.05;;
10637;SDS011;47007;49.252;8.904;2023-11-18T00:26:52;6.50;;;5.90;;
10637;SDS011;47007;49.252;8.904;2023-11-18T00:27:33;5.78;;;5.30;;
10637;SDS011;47007;49.252;8.904;2023-11-18T00:28:17;6.45;;;5.85;;
10637;SDS011;47007;49.252;8.904;2023-11-18T00:29:01;5.97;;;5.50;;
10637;SDS011;47007;49.252;8.904;2023-11-18T00:29:43;6.07;;;5.57;;
10637;SDS011;47007;49.252;8.904;2023-11-18T00:30:27;5.95;;;5.45;;
10637;SDS011;47007;49.252;8.904;2023-11-18T00:31:09;6.03;;;5.53;;
10637;SDS011;47007;49.252;8.904;2023-11-18T00:31:51;6.22;;;5.72;;
10637;SDS011;47007;49.252;8.904;2023-11-18T00:32:33;6.40;;;5.80;;
10637;SDS011;47007;49.252;8.904;2023-11-18T00:33:16;6.05;;;5.55;;
10637;SDS011;47007;49.252;8.904;2023-11-18T00:33:59;6.53;;;6.03;;
10637;SDS011;47007;49.252;8.904;2023-11-18T00:34:40;5.82;;;5.28;;
10637;SDS011;47007;49.252;8.904;2023-11-18T00:35:22;6.07;;;5.57;;
10637;SDS011;47007;49.252;8.904;2023-11-18T00:36:04;5.68;;;5.18;;
10637;SDS011;47007;49.252;8.904;2023-11-18T00:36:46;6.13;;;5.63;;
10637;SDS011;47007;49.252;8.904;2023-11-18T00:37:28;6.43;;;5.93;;
10637;SDS011;47007;49.252;8.904;2023-11-18T00:38:10;6.20;;;5.60;;
10637;SDS011;47007;49.252;8.904;2023-11-18T00:38:52;5.72;;;5.22;;
10637;SDS011;47007;49.252;8.904;2023-11-18T00:39:33;6.63;;;6.00;;
10637;SDS011;47007;49.252;8.904;2023-11-18T00:40:16;6.38;;;5.78;;
10637;SDS011;47007;49.252;8.904;2023-11-18T00:40:59;5.80;;;5.30;;
10637;SDS011;47007;49.252;8.904;2023-11-18T00:41:41;6.03;;;5.53;;
10637;SDS011;47007;49.252;8.904;2023-11-18T00:42:23;5.95;;;5.45;;
10637;SDS011;47007;49.252;8.904;2023-11-18T00:43:05;6.72;;;6.13;;
10637;SDS011;47007;49.252;8.904;2023-11-18T00:43:47;6.28;;;5.68;;
10637;SDS011;47007;49.252;8.904;2023-11-18T00:44:29;6.55;;;6.05;;
10637;SDS011;47007;49.252;8.904;2023-11-18T00:45:11;6.30;;;5.78;;
10637;SDS011;47007;49.252;8.904;2023-11-18T00:45:54;6.88;;;6.32;;
10637;SDS011;47007;49.252;8.904;2023-11-18T00:46:36;6.53;;;6.03;;
10637;SDS011;47007;49.252;8.904;2023-11-18T00:47:18;6.93;;;6.32;;
10637;SDS011;47007;49.252;8.904;2023-11-18T00:48:00;7.03;;;6.43;;
10637;SDS011;47007;49.252;8.904;2023-11-18T00:48:42;7.10;;;6.50;;
10637;SDS011;47007;49.252;8.904;2023-11-18T00:49:25;7.38;;;6.78;;
10637;SDS011;47007;49.252;8.904;2023-11-18T00:50:08;7.70;;;7.10;;
10637;SDS011;47007;49.252;8.904;2023-11-18T00:50:50;7.35;;;6.65;;
10637;SDS011;47007;49.252;8.904;2023-11-18T00:51:33;7.50;;;6.75;;
10637;SDS011;47007;49.252;8.904;2023-11-18T00:52:15;7.53;;;6.82;;
10637;SDS011;47007;49.252;8.904;2023-11-18T00:52:57;7.85;;;7.15;;
10637;SDS011;47007;49.252;8.904;2023-11-18T00:53:40;7.68;;;6.97;;
10637;SDS011;47007;49.252;8.904;2023-11-18T00:54:21;7.53;;;6.93;;
10637;SDS011;47007;49.252;8.904;2023-11-18T00:55:05;8.00;;;7.40;;
10637;SDS011;47007;49.252;8.904;2023-11-18T00:55:48;7.20;;;6.60;;
10637;SDS011;47007;49.252;8.904;2023-11-18T00:56:30;7.20;;;6.60;;
10637;SDS011;47007;49.252;8.904;2023-11-18T00:57:13;7.55;;;6.95;;
10637;SDS011;47007;49.252;8.904;2023-11-18T00:57:54;7.32;;;6.70;;
10637;SDS011;47007;49.252;8.904;2023-11-18T00:58:36;7.30;;;6.70;;
10637;SDS011;47007;49.252;8.904;2023-11-18T00:59:21;7.03;;;6.43;;
10637;SDS011;47007;49.252;8.904;2023-11-18T01:00:03;7.72;;;6.97;;
10637;SDS011;47007;49.252;8.904;2023-11-18T01:00:45;7.47;;;6.88;;
10637;SDS011;47007;49.252;8.904;2023-11-18T01:01:27;7.22;;;6.63;;
10637;SDS011;47007;49.252;8.904;2023-11-18T01:02:10;6.97;;;6.38;;
10637;SDS011;47007;49.252;8.904;2023-11-18T01:02:53;7.63;;;6.93;;
10637;SDS011;47007;49.252;8.904;2023-11-18T01:03:38;8.25;;;7.55;;
10637;SDS011;47007;49.252;8.904;2023-11-18T01:04:20;8.10;;;7.32;;
10637;SDS011;47007;49.252;8.904;2023-11-18T01:05:02;8.80;;;8.10;;
10637;SDS011;47007;49.252;8.904;2023-11-18T01:05:45;8.60;;;7.80;;
10637;SDS011;47007;49.252;8.904;2023-11-18T01:06:27;8.75;;;7.95;;
10637;SDS011;47007;49.252;8.904;2023-11-18T01:07:08;8.75;;;7.80;;
10637;SDS011;47007;49.252;8.904;2023-11-18T01:07:50;9.30;;;8.50;;
10637;SDS011;47007;49.252;8.904;2023-11-18T01:08:32;8.65;;;7.85;;
10637;SDS011;47007;49.252;8.904;2023-11-18T01:09:14;8.80;;;8.10;;
10637;SDS011;47007;49.252;8.904;2023-11-18T01:09:57;8.40;;;7.70;;
10637;SDS011;47007;49.252;8.904;2023-11-18T01:10:39;8.60;;;7.80;;
10637;SDS011;47007;49.252;8.904;2023-11-18T01:11:21;8.10;;;7.28;;
10637;SDS011;47007;49.252;8.904;2023-11-18T01:12:05;8.00;;;7.30;;
10637;SDS011;47007;49.252;8.904;2023-11-18T01:12:50;7.82;;;7.10;;
10637;SDS011;47007;49.252;8.904;2023-11-18T01:13:32;8.73;;;7.90;;
10637;SDS011;47007;49.252;8.904;2023-11-18T01:14:14;9.43;;;7.93;;
10637;SDS011;47007;49.252;8.904;2023-11-18T01:14:56;9.48;;;8.57;;
10637;SDS011;47007;49.252;8.904;2023-11-18T01:15:38;9.07;;;8.27;;
10637;SDS011;47007;49.252;8.904;2023-11-18T01:16:20;10.55;;;9.55;;
10637;SDS011;47007;49.252;8.904;2023-11-18T01:17:02;9.40;;;8.50;;
10637;SDS011;47007;49.252;8.904;2023-11-18T01:17:44;9.15;;;8.35;;
10637;SDS011;47007;49.252;8.904;2023-11-18T01:18:26;10.32;;;9.15;;
10637;SDS011;47007;49.252;8.904;2023-11-18T01:19:07;8.60;;;7.80;;
10637;SDS011;47007;49.252;8.904;2023-11-18T01:19:50;8.13;;;7.43;;
10637;SDS011;47007;49.252;8.904;2023-11-18T01:20:32;8.68;;;7.90;;
10637;SDS011;47007;49.252;8.904;2023-11-18T01:21:14;9.35;;;8.48;;
10637;SDS011;47007;49.252;8.904;2023-11-18T01:21:58;9.00;;;8.20;;
10637;SDS011;47007;49.252;8.904;2023-11-18T01:22:41;8.35;;;7.60;;
10637;SDS011;47007;49.252;8.904;2023-11-18T01:23:24;8.48;;;7.78;;
10637;SDS011;47007;49.252;8.904;2023-11-18T01:24:06;8.40;;;7.70;;
10637;SDS011;47007;49.252;8.904;2023-11-18T01:24:49;8.25;;;7.55;;
10637;SDS011;47007;49.252;8.904;2023-11-18T01:25:32;9.30;;;8.48;;
10637;SDS011;47007;49.252;8.904;2023-11-18T01:26:14;8.60;;;7.88;;
10637;SDS011;47007;49.252;8.904;2023-11-18T01:26:56;8.35;;;7.55;;
10637;SDS011;47007;49.252;8.904;2023-11-18T01:27:38;8.40;;;7.70;;
10637;SDS011;47007;49.252;8.904;2023-11-18T01:28:21;8.85;;;8.05;;
10637;SDS011;47007;49.252;8.904;2023-11-18T01:29:03;8.52;;;7.80;;
10637;SDS011;47007;49.252;8.904;2023-11-18T01:29:45;7.93;;;7.22;;
10637;SDS011;47007;49.252;8.904;2023-11-18T01:30:28;8.13;;;7.43;;
10637;SDS011;47007;49.252;8.904;2023-11-18T01:31:10;8.88;;;7.97;;
10637;SDS011;47007;49.252;8.904;2023-11-18T01:31:52;8.18;;;7.47;;
10637;SDS011;47007;49.252;8.904;2023-11-18T01:32:36;8.77;;;7.97;;
10637;SDS011;47007;49.252;8.904;2023-11-18T01:33:18;8.15;;;7.45;;
10637;SDS011;47007;49.252;8.904;2023-11-18T01:34:00;8.93;;;8.10;;
10637;SDS011;47007;49.252;8.904;2023-11-18T01:34:42;8.50;;;7.70;;
10637;SDS011;47007;49.252;8.904;2023-11-18T01:35:26;8.82;;;8.10;;
10637;SDS011;47007;49.252;8.904;2023-11-18T01:36:08;7.80;;;7.20;;
10637;SDS011;47007;49.252;8.904;2023-11-18T01:36:50;8.30;;;7.60;;
10637;SDS011;47007;49.252;8.904;2023-11-18T01:37:32;8.60;;;7.90;;
10637;SDS011;47007;49.252;8.904;2023-11-18T01:38:14;8.27;;;7.57;;
10637;SDS011;47007;49.252;8.904;2023-11-18T01:38:56;8.52;;;7.78;;
10637;SDS011;47007;49.252;8.904;2023-11-18T01:39:38;8.15;;;7.38;;
10637;SDS011;47007;49.252;8.904;2023-11-18T01:40:20;8.52;;;7.70;;
10637;SDS011;47007;49.252;8.904;2023-11-18T01:41:02;8.48;;;7.78;;
10637;SDS011;47007;49.252;8.904;2023-11-18T01:41:44;8.50;;;7.80;;
10637;SDS011;47007;49.252;8.904;2023-11-18T01:42:26;8.88;;;7.63;;
10637;SDS011;47007;49.252;8.904;2023-11-18T01:43:08;8.65;;;7.85;;
10637;SDS011;47007;49.252;8.904;2023-11-18T01:43:53;7.50;;;6.90;;
10637;SDS011;47007;49.252;8.904;2023-11-18T01:44:35;9.07;;;8.27;;
10637;SDS011;47007;49.252;8.904;2023-11-18T01:45:17;8.95;;;8.15;;
10637;SDS011;47007;49.252;8.904;2023-11-18T01:45:59;9.05;;;8.18;;
10637;SDS011;47007;49.252;8.904;2023-11-18T01:46:43;8.70;;;8.00;;
10637;SDS011;47007;49.252;8.904;2023-11-18T01:47:26;8.32;;;7.70;;
10637;SDS011;47007;49.252;8.904;2023-11-18T01:48:08;8.43;;;7.72;;
10637;SDS011;47007;49.252;8.904;2023-11-18T01:48:53;22.30;;;20.05;;
10637;SDS011;47007;49.252;8.904;2023-11-18T01:49:36;17.80;;;15.98;;
10637;SDS011;47007;49.252;8.904;2023-11-18T01:50:21;14.20;;;12.90;;
10637;SDS011;47007;49.252;8.904;2023-11-18T01:51:04;11.15;;;10.23;;
10637;SDS011;47007;49.252;8.904;2023-11-18T01:51:47;10.98;;;10.02;;
10637;SDS011;47007;49.252;8.904;2023-11-18T01:52:35;11.82;;;10.73;;
10637;SDS011;47007;49.252;8.904;2023-11-18T01:53:17;10.73;;;9.73;;
10637;SDS011;47007;49.252;8.904;2023-11-18T01:53:59;10.25;;;9.45;;
10637;SDS011;47007;49.252;8.904;2023-11-18T01:54:41;9.90;;;9.10;;
10637;SDS011;47007;49.252;8.904;2023-11-18T01:55:26;10.20;;;9.30;;
10637;SDS011;47007;49.252;8.904;2023-11-18T01:56:08;9.73;;;8.93;;
10637;SDS011;47007;49.252;8.904;2023-11-18T01:56:50;10.93;;;9.93;;
10637;SDS011;47007;49.252;8.904;2023-11-18T01:57:33;10.30;;;9.40;;
10637;SDS011;47007;49.252;8.904;2023-11-18T01:58:16;11.55;;;10.45;;
10637;SDS011;47007;49.252;8.904;2023-11-18T01:59:01;12.27;;;11.25;;
10637;SDS011;47007;49.252;8.904;2023-11-18T01:59:46;11.50;;;10.50;;
10637;SDS011;47007;49.252;8.904;2023-11-18T02:00:28;11.85;;;10.85;;
10637;SDS011;47007;49.252;8.904;2023-11-18T02:01:12;11.23;;;10.23;;
10637;SDS011;47007;49.252;8.904;2023-11-18T02:01:56;10.93;;;9.93;;
10637;SDS011;47007;49.252;8.904;2023-11-18T02:02:41;10.77;;;9.80;;
10637;SDS011;47007;49.252;8.904;2023-11-18T02:03:25;10.88;;;9.88;;
10637;SDS011;47007;49.252;8.904;2023-11-18T02:04:08;10.25;;;9.32;;
10637;SDS011;47007;49.252;8.904;2023-11-18T02:04:51;9.20;;;8.35;;
10637;SDS011;47007;49.252;8.904;2023-11-18T02:05:33;9.75;;;8.85;;
10637;SDS011;47007;49.252;8.904;2023-11-18T02:06:16;9.68;;;8.88;;
10637;SDS011;47007;49.252;8.904;2023-11-18T02:06:57;9.07;;;8.27;;
10637;SDS011;47007;49.252;8.904;2023-11-18T02:07:39;9.45;;;8.65;;
10637;SDS011;47007;49.252;8.904;2023-11-18T02:08:21;9.73;;;8.85;;
10637;SDS011;47007;49.252;8.904;2023-11-18T02:09:04;9.23;;;8.52;;
10637;SDS011;47007;49.252;8.904;2023-11-18T02:09:45;9.10;;;8.30;;
10637;SDS011;47007;49.252;8.904;2023-11-18T02:10:28;9.38;;;8.57;;
10637;SDS011;47007;49.252;8.904;2023-11-18T02:11:13;9.60;;;8.80;;
10637;SDS011;47007;49.252;8.904;2023-11-18T02:12:10;9.57;;;8.77;;
10637;SDS011;47007;49.252;8.904;2023-11-18T02:13:11;9.05;;;8.35;;
10637;SDS011;47007;49.252;8.904;2023-11-18T02:13:56;9.02;;;8.13;;
10637;SDS011;47007;49.252;8.904;2023-11-18T02:14:44;8.57;;;7.88;;
10637;SDS011;47007;49.252;8.904;2023-11-18T02:15:26;8.30;;;7.60;;
10637;SDS011;47007;49.252;8.904;2023-11-18T02:16:10;8.65;;;7.85;;
10637;SDS011;47007;49.252;8.904;2023-11-18T02:16:52;9.05;;;8.25;;
10637;SDS011;47007;49.252;8.904;2023-11-18T02:17:37;8.27;;;7.63;;
10637;SDS011;47007;49.252;8.904;2023-11-18T02:18:20;8.48;;;7.72;;
10637;SDS011;47007;49.252;8.904;2023-11-18T02:19:04;8.48;;;7.78;;
10637;SDS011;47007;49.252;8.904;2023-11-18T02:19:58;8.52;;;7.80;;
10637;SDS011;47007;49.252;8.904;2023-11-18T02:20:40;9.57;;;8.77;;
10637;SDS011;47007;49.252;8.904;2023-11-18T02:21:23;8.48;;;7.78;;
10637;SDS011;47007;49.252;8.904;2023-11-18T02:22:06;9.48;;;8.60;;
10637;SDS011;47007;49.252;8.904;2023-11-18T02:22:49;9.05;;;8.25;;
10637;SDS011;47007;49.252;8.904;2023-11-18T02:23:32;9.18;;;8.38;;
10637;SDS011;47007;49.252;8.904;2023-11-18T02:24:26;9.13;;;8.32;;
10637;SDS011;47007;49.252;8.904;2023-11-18T02:25:16;9.07;;;8.27;;
10637;SDS011;47007;49.252;8.904;2023-11-18T02:25:59;10.18;;;9.27;;
10637;SDS011;47007;49.252;8.904;2023-11-18T02:26:42;9.27;;;8.55;;
10637;SDS011;47007;49.252;8.904;2023-11-18T02:27:24;9.65;;;8.85;;
10637;SDS011;47007;49.252;8.904;2023-11-18T02:28:07;10.10;;;9.25;;
10637;SDS011;47007;49.252;8.904;2023-11-18T02:28:51;10.55;;;9.65;;
10637;SDS011;47007;49.252;8.904;2023-11-18T02:29:39;9.90;;;9.00;;
10637;SDS011;47007;49.252;8.904;2023-11-18T02:30:26;10.13;;;9.23;;
10637;SDS011;47007;49.252;8.904;2023-11-18T02:31:14;10.00;;;9.15;;
10637;SDS011;47007;49.252;8.904;2023-11-18T02:33:18;10.18;;;9.27;;
10637;SDS011;47007;49.252;8.904;2023-11-18T02:34:10;10.88;;;9.98;;
10637;SDS011;47007;49.252;8.904;2023-11-18T02:35:02;10.35;;;9.45;;
10637;SDS011;47007;49.252;8.904;2023-11-18T02:36:14;10.55;;;9.65;;
10637;SDS011;47007;49.252;8.904;2023-11-18T02:37:04;9.98;;;9.15;;
10637;SDS011;47007;49.252;8.904;2023-11-18T02:37:49;10.55;;;9.65;;
10637;SDS011;47007;49.252;8.904;2023-11-18T02:38:35;10.00;;;9.10;;
10637;SDS011;47007;49.252;8.904;2023-11-18T02:39:35;10.13;;;9.32;;
10637;SDS011;47007;49.252;8.904;2023-11-18T02:40:32;10.05;;;9.18;;
10637;SDS011;47007;49.252;8.904;2023-11-18T02:41:17;10.93;;;9.98;;
10637;SDS011;47007;49.252;8.904;2023-11-18T02:42:00;10.48;;;9.55;;
10637;SDS011;47007;49.252;8.904;2023-11-18T02:42:44;10.25;;;9.43;;
10637;SDS011;47007;49.252;8.904;2023-11-18T02:43:27;9.82;;;9.02;;
10637;SDS011;47007;49.252;8.904;2023-11-18T02:44:12;10.20;;;9.35;;
10637;SDS011;47007;49.252;8.904;2023-11-18T02:44:59;10.20;;;9.40;;
10637;SDS011;47007;49.252;8.904;2023-11-18T02:45:41;10.35;;;9.35;;
10637;SDS011;47007;49.252;8.904;2023-11-18T02:46:24;9.85;;;9.05;;
10637;SDS011;47007;49.252;8.904;2023-11-18T02:47:09;10.10;;;9.20;;
10637;SDS011;47007;49.252;8.904;2023-11-18T02:47:51;9.68;;;8.88;;
10637;SDS011;47007;49.252;8.904;2023-11-18T02:48:36;10.90;;;10.00;;
10637;SDS011;47007;49.252;8.904;2023-11-18T02:49:20;10.48;;;9.63;;
10637;SDS011;47007;49.252;8.904;2023-11-18T02:50:01;10.50;;;9.60;;
10637;SDS011;47007;49.252;8.904;2023-11-18T02:50:47;10.68;;;9.77;;
10637;SDS011;47007;49.252;8.904;2023-11-18T02:51:29;11.85;;;10.75;;
10637;SDS011;47007;49.252;8.904;2023-11-18T02:52:15;11.13;;;10.13;;
10637;SDS011;47007;49.252;8.904;2023-11-18T02:52:56;11.07;;;10.07;;
10637;SDS011;47007;49.252;8.904;2023-11-18T02:53:38;10.68;;;9.77;;
10637;SDS011;47007;49.252;8.904;2023-11-18T02:54:22;11.23;;;10.18;;
10637;SDS011;47007;49.252;8.904;2023-11-18T02:55:04;10.38;;;9.48;;
10637;SDS011;47007;49.252;8.904;2023-11-18T02:55:50;11.43;;;10.43;;
10637;SDS011;47007;49.252;8.904;2023-11-18T02:56:38;10.98;;;10.05;;
10637;SDS011;47007;49.252;8.904;2023-11-18T02:57:20;11.10;;;10.10;;
10637;SDS011;47007;49.252;8.904;2023-11-18T02:58:03;11.20;;;10.30;;
10637;SDS011;47007;49.252;8.904;2023-11-18T02:58:48;11.80;;;10.70;;
10637;SDS011;47007;49.252;8.904;2023-11-18T02:59:29;11.98;;;10.98;;
10637;SDS011;47007;49.252;8.904;2023-11-18T03:00:12;10.80;;;9.88;;
10637;SDS011;47007;49.252;8.904;2023-11-18T03:00:58;11.23;;;10.23;;
10637;SDS011;47007;49.252;8.904;2023-11-18T03:01:41;11.13;;;10.13;;
10637;SDS011;47007;49.252;8.904;2023-11-18T03:02:23;11.60;;;10.65;;
10637;SDS011;47007;49.252;8.904;2023-11-18T03:03:05;10.00;;;9.13;;
10637;SDS011;47007;49.252;8.904;2023-11-18T03:03:46;10.57;;;9.73;;
10637;SDS011;47007;49.252;8.904;2023-11-18T03:04:28;11.25;;;10.10;;
10637;SDS011;47007;49.252;8.904;2023-11-18T03:05:10;11.35;;;10.32;;
10637;SDS011;47007;49.252;8.904;2023-11-18T03:05:53;11.40;;;10.40;;
10637;SDS011;47007;49.252;8.904;2023-11-18T03:06:36;10.45;;;9.50;;
10637;SDS011;47007;49.252;8.904;2023-11-18T03:07:17;11.00;;;10.10;;
10637;SDS011;47007;49.252;8.904;2023-11-18T03:07:59;11.00;;;9.90;;
10637;SDS011;47007;49.252;8.904;2023-11-18T03:08:41;10.88;;;9.88;;
10637;SDS011;47007;49.252;8.904;2023-11-18T03:09:23;11.35;;;10.40;;
10637;SDS011;47007;49.252;8.904;2023-11-18T03:10:09;11.25;;;10.35;;
10637;SDS011;47007;49.252;8.904;2023-11-18T03:10:52;10.55;;;9.65;;
10637;SDS011;47007;49.252;8.904;2023-11-18T03:11:34;11.30;;;10.32;;
10637;SDS011;47007;49.252;8.904;2023-11-18T03:12:16;11.77;;;10.77;;
10637;SDS011;47007;49.252;8.904;2023-11-18T03:12:57;12.30;;;11.30;;
10637;SDS011;47007;49.252;8.904;2023-11-18T03:13:39;11.32;;;10.38;;
10637;SDS011;47007;49.252;8.904;2023-11-18T03:14:21;12.05;;;10.95;;
10637;SDS011;47007;49.252;8.904;2023-11-18T03:15:04;11.98;;;10.88;;
10637;SDS011;47007;49.252;8.904;2023-11-18T03:15:47;11.38;;;10.48;;
10637;SDS011;47007;49.252;8.904;2023-11-18T03:16:29;10.93;;;9.93;;
10637;SDS011;47007;49.252;8.904;2023-11-18T03:17:11;12.02;;;11.02;;
10637;SDS011;47007;49.252;8.904;2023-11-18T03:17:53;11.73;;;10.82;;
10637;SDS011;47007;49.252;8.904;2023-11-18T03:18:35;11.15;;;10.15;;
10637;SDS011;47007;49.252;8.904;2023-11-18T03:19:19;11.45;;;10.52;;
10637;SDS011;47007;49.252;8.904;2023-11-18T03:20:01;11.98;;;10.80;;
10637;SDS011;47007;49.252;8.904;2023-11-18T03:20:43;11.93;;;10.95;;
10637;SDS011;47007;49.252;8.904;2023-11-18T03:21:24;11.05;;;10.05;;
10637;SDS011;47007;49.252;8.904;2023-11-18T03:22:07;11.55;;;10.55;;
10637;SDS011;47007;49.252;8.904;2023-11-18T03:22:50;11.65;;;10.55;;
10637;SDS011;47007;49.252;8.904;2023-11-18T03:23:34;11.57;;;10.57;;
10637;SDS011;47007;49.252;8.904;2023-11-18T03:24:16;11.93;;;10.82;;
10637;SDS011;47007;49.252;8.904;2023-11-18T03:24:58;12.07;;;11.07;;
10637;SDS011;47007;49.252;8.904;2023-11-18T03:25:39;11.77;;;10.70;;
10637;SDS011;47007;49.252;8.904;2023-11-18T03:26:21;12.48;;;11.32;;
10637;SDS011;47007;49.252;8.904;2023-11-18T03:27:03;11.10;;;10.20;;
10637;SDS011;47007;49.252;8.904;2023-11-18T03:27:45;11.80;;;10.77;;
10637;SDS011;47007;49.252;8.904;2023-11-18T03:28:26;11.60;;;10.60;;
10637;SDS011;47007;49.252;8.904;2023-11-18T03:29:08;11.55;;;10.60;;
10637;SDS011;47007;49.252;8.904;2023-11-18T03:29:52;11.27;;;10.30;;
10637;SDS011;47007;49.252;8.904;2023-11-18T03:30:35;10.73;;;9.73;;
10637;SDS011;47007;49.252;8.904;2023-11-18T03:31:19;10.40;;;9.50;;
10637;SDS011;47007;49.252;8.904;2023-11-18T03:32:01;11.40;;;10.40;;
10637;SDS011;47007;49.252;8.904;2023-11-18T03:32:43;12.23;;;10.93;;
10637;SDS011;47007;49.252;8.904;2023-11-18T03:33:25;10.73;;;9.82;;
10637;SDS011;47007;49.252;8.904;2023-11-18T03:34:07;11.63;;;10.63;;
10637;SDS011;47007;49.252;8.904;2023-11-18T03:34:49;11.25;;;10.25;;
10637;SDS011;47007;49.252;8.904;2023-11-18T03:35:31;11.32;;;10.32;;
10637;SDS011;47007;49.252;8.904;2023-11-18T03:36:14;11.50;;;10.50;;
10637;SDS011;47007;49.252;8.904;2023-11-18T03:36:59;11.68;;;10.68;;
10637;SDS011;47007;49.252;8.904;2023-11-18T03:37:41;11.65;;;10.65;;
10637;SDS011;47007;49.252;8.904;2023-11-18T03:38:25;11.73;;;10.73;;
10637;SDS011;47007;49.252;8.904;2023-11-18T03:39:09;11.52;;;10.52;;
10637;SDS011;47007;49.252;8.904;2023-11-18T03:39:52;11.07;;;10.05;;
10637;SDS011;47007;49.252;8.904;2023-11-18T03:40:34;10.88;;;9.98;;
10637;SDS011;47007;49.252;8.904;2023-11-18T03:41:16;10.93;;;10.07;;
10637;SDS011;47007;49.252;8.904;2023-11-18T03:41:58;11.70;;;10.60;;
10637;SDS011;47007;49.252;8.904;2023-11-18T03:42:43;12.02;;;10.90;;
10637;SDS011;47007;49.252;8.904;2023-11-18T03:43:28;11.77;;;10.85;;
10637;SDS011;47007;49.252;8.904;2023-11-18T03:44:13;11.38;;;10.43;;
10637;SDS011;47007;49.252;8.904;2023-11-18T03:44:55;11.80;;;10.73;;
10637;SDS011;47007;49.252;8.904;2023-11-18T03:45:39;12.23;;;11.15;;
10637;SDS011;47007;49.252;8.904;2023-11-18T03:46:22;11.95;;;10.95;;
10637;SDS011;47007;49.252;8.904;2023-11-18T03:47:04;12.55;;;11.45;;
10637;SDS011;47007;49.252;8.904;2023-11-18T03:47:46;12.10;;;10.95;;
10637;SDS011;47007;49.252;8.904;2023-11-18T03:48:29;12.90;;;11.70;;
10637;SDS011;47007;49.252;8.904;2023-11-18T03:49:12;12.43;;;11.20;;
10637;SDS011;47007;49.252;8.904;2023-11-18T03:49:53;12.60;;;11.50;;
10637;SDS011;47007;49.252;8.904;2023-11-18T03:50:38;12.68;;;11.57;;
10637;SDS011;47007;49.252;8.904;2023-11-18T03:51:20;12.57;;;11.48;;
10637;SDS011;47007;49.252;8.904;2023-11-18T03:52:02;12.57;;;11.48;;
10637;SDS011;47007;49.252;8.904;2023-11-18T03:52:44;11.55;;;10.55;;
10637;SDS011;47007;49.252;8.904;2023-11-18T03:53:26;12.57;;;11.43;;
10637;SDS011;47007;49.252;8.904;2023-11-18T03:54:08;12.60;;;11.43;;
10637;SDS011;47007;49.252;8.904;2023-11-18T03:54:53;11.98;;;10.98;;
10637;SDS011;47007;49.252;8.904;2023-11-18T03:55:36;11.85;;;10.85;;
10637;SDS011;47007;49.252;8.904;2023-11-18T03:56:18;11.95;;;10.95;;
10637;SDS011;47007;49.252;8.904;2023-11-18T03:57:00;12.57;;;11.48;;
10637;SDS011;47007;49.252;8.904;2023-11-18T03:57:41;12.30;;;11.18;;
10637;SDS011;47007;49.252;8.904;2023-11-18T03:58:23;12.30;;;11.00;;
10637;SDS011;47007;49.252;8.904;2023-11-18T03:59:05;12.48;;;11.38;;
10637;SDS011;47007;49.252;8.904;2023-11-18T03:59:47;12.35;;;11.30;;
10637;SDS011;47007;49.252;8.904;2023-11-18T04:00:29;13.18;;;11.98;;
10637;SDS011;47007;49.252;8.904;2023-11-18T04:01:11;12.02;;;10.93;;
10637;SDS011;47007;49.252;8.904;2023-11-18T04:01:58;12.30;;;11.30;;
10637;SDS011;47007;49.252;8.904;2023-11-18T04:02:40;12.63;;;11.52;;
10637;SDS011;47007;49.252;8.904;2023-11-18T04:03:22;13.93;;;12.73;;
10637;SDS011;47007;49.252;8.904;2023-11-18T04:04:04;13.77;;;12.48;;
10637;SDS011;47007;49.252;8.904;2023-11-18T04:04:46;12.90;;;11.80;;
10637;SDS011;47007;49.252;8.904;2023-11-18T04:05:29;12.75;;;11.65;;
10637;SDS011;47007;49.252;8.904;2023-11-18T04:06:13;13.15;;;11.93;;
10637;SDS011;47007;49.252;8.904;2023-11-18T04:06:56;12.95;;;11.82;;
10637;SDS011;47007;49.252;8.904;2023-11-18T04:07:38;13.25;;;12.13;;
10637;SDS011;47007;49.252;8.904;2023-11-18T04:08:23;12.93;;;11.82;;
10637;SDS011;47007;49.252;8.904;2023-11-18T04:09:05;12.10;;;11.10;;
10637;SDS011;47007;49.252;8.904;2023-11-18T04:09:47;13.15;;;11.95;;
10637;SDS011;47007;49.252;8.904;2023-11-18T04:10:29;13.45;;;12.13;;
10637;SDS011;47007;49.252;8.904;2023-11-18T04:11:11;13.73;;;12.52;;
10637;SDS011;47007;49.252;8.904;2023-11-18T04:11:53;15.50;;;14.07;;
10637;SDS011;47007;49.252;8.904;2023-11-18T04:12:35;16.33;;;14.55;;
10637;SDS011;47007;49.252;8.904;2023-11-18T04:13:17;16.92;;;15.25;;
10637;SDS011;47007;49.252;8.904;2023-11-18T04:13:58;16.50;;;15.00;;
10637;SDS011;47007;49.252;8.904;2023-11-18T04:14:40;15.63;;;14.13;;
10637;SDS011;47007;49.252;8.904;2023-11-18T04:15:22;13.98;;;12.68;;
10637;SDS011;47007;49.252;8.904;2023-11-18T04:16:04;14.27;;;12.82;;
10637;SDS011;47007;49.252;8.904;2023-11-18T04:16:46;13.55;;;12.15;;
10637;SDS011;47007;49.252;8.904;2023-11-18T04:17:30;14.18;;;12.88;;